createdAt,value
2019-04-21T00:00:45.629Z,9.33
2019-04-21T00:03:18.953Z,10.50
2019-04-21T00:06:04.613Z,9.15
2019-04-21T00:08:39.242Z,9.38
2019-04-21T00:11:10.343Z,8.88
2019-04-21T00:15:53.901Z,8.28
2019-04-21T00:18:49.869Z,10.25
2019-04-21T00:21:22.292Z,9.95
2019-04-21T00:24:01.294Z,8.20
2019-04-21T00:26:33.308Z,9.80
2019-04-21T00:29:09.129Z,9.78
2019-04-21T00:31:33.930Z,9.35
2019-04-21T00:33:51.540Z,12.73
2019-04-21T00:36:29.278Z,11.50
2019-04-21T00:39:24.832Z,9.20
2019-04-21T00:41:43.917Z,14.13
2019-04-21T00:44:08.667Z,8.90
2019-04-21T00:46:44.912Z,10.63
2019-04-21T00:49:16.926Z,10.70
2019-04-21T00:52:14.414Z,8.25
2019-04-21T00:54:44.329Z,10.20
2019-04-21T00:57:12.047Z,11.80
2019-04-21T00:59:43.276Z,11.22
2019-04-21T01:02:09.910Z,10.80
2019-04-21T01:04:42.859Z,11.50
2019-04-21T01:07:17.651Z,13.70
2019-04-21T01:09:43.699Z,11.35
2019-04-21T01:12:19.035Z,12.88
2019-04-21T01:14:58.125Z,10.98
2019-04-21T01:17:21.917Z,11.18
2019-04-21T01:19:51.366Z,8.63
2019-04-21T01:22:05.404Z,8.00
2019-04-21T01:24:39.603Z,10.53
2019-04-21T01:27:17.589Z,9.08
2019-04-21T01:29:59.806Z,8.65
2019-04-21T01:32:29.678Z,10.20
2019-04-21T01:37:40.855Z,11.05
2019-04-21T01:40:09.745Z,9.90
2019-04-21T01:42:31.547Z,12.75
2019-04-21T01:45:21.279Z,10.85
2019-04-21T01:47:52.171Z,10.13
2019-04-21T01:50:27.494Z,11.12
2019-04-21T01:53:20.529Z,12.28
2019-04-21T01:56:14.844Z,13.08
2019-04-21T01:58:40.212Z,9.73
2019-04-21T02:01:22.744Z,9.98
2019-04-21T02:06:29.026Z,12.53
2019-04-21T02:08:56.055Z,10.03
2019-04-21T02:11:30.996Z,13.45
2019-04-21T02:14:09.032Z,14.23
2019-04-21T02:16:28.365Z,9.88
2019-04-21T02:18:58.852Z,11.90
2019-04-21T02:24:05.098Z,11.70
2019-04-21T02:26:33.591Z,11.70
2019-04-21T02:29:07.091Z,11.18
2019-04-21T02:31:50.456Z,10.70
2019-04-21T02:34:38.376Z,11.10
2019-04-21T02:36:59.778Z,10.32
2019-04-21T02:39:19.248Z,9.78
2019-04-21T02:41:54.651Z,14.68
2019-04-21T02:51:52.602Z,10.03
2019-04-21T03:07:21.587Z,10.13
2019-04-21T03:09:49.714Z,10.58
2019-04-21T03:12:24.586Z,12.45
2019-04-21T03:17:32.444Z,11.03
2019-04-21T03:20:02.867Z,10.25
2019-04-21T03:27:50.865Z,10.03
2019-04-21T03:30:14.253Z,9.90
2019-04-21T03:37:39.908Z,13.78
2019-04-21T03:40:16.799Z,13.85
2019-04-21T03:45:25.124Z,11.20
2019-04-21T03:47:50.171Z,11.57
2019-04-21T03:50:20.518Z,10.35
2019-04-21T03:52:53.393Z,9.38
2019-04-21T03:55:48.750Z,10.95
2019-04-21T03:58:15.116Z,10.75
2019-04-21T04:09:19.524Z,15.15
2019-04-21T04:16:49.761Z,10.93
2019-04-21T04:21:52.446Z,13.53
2019-04-21T04:24:24.336Z,12.88
2019-04-21T04:29:19.941Z,11.50
2019-04-21T04:31:42.758Z,12.80
2019-04-21T04:34:24.814Z,12.37
2019-04-21T04:42:31.323Z,11.08
2019-04-21T04:45:04.399Z,10.32
2019-04-21T04:49:51.572Z,11.55
2019-04-21T04:52:32.870Z,11.50
2019-04-21T04:55:00.681Z,11.15
2019-04-21T05:10:33.033Z,10.35
2019-04-21T05:12:38.810Z,11.55
2019-04-21T05:15:07.887Z,9.88
2019-04-21T05:20:11.645Z,9.33
2019-04-21T05:22:35.497Z,8.08
2019-04-21T05:25:03.425Z,7.70
2019-04-21T05:27:45.178Z,9.25
2019-04-21T05:30:42.228Z,9.73
2019-04-21T05:33:33.209Z,7.87
2019-04-21T05:36:11.398Z,6.75
2019-04-21T05:38:53.095Z,8.88
2019-04-21T05:41:19.472Z,10.53
2019-04-21T05:43:56.527Z,7.40
2019-04-21T05:46:32.346Z,10.13
2019-04-21T05:49:03.818Z,7.58
2019-04-21T05:51:34.166Z,13.98
2019-04-21T05:54:21.414Z,9.83
2019-04-21T05:56:46.072Z,13.58
2019-04-21T05:59:07.952Z,9.70
2019-04-21T06:01:50.331Z,7.62
2019-04-21T06:04:17.143Z,8.35
2019-04-21T06:06:49.785Z,9.43
2019-04-21T06:11:42.437Z,8.80
2019-04-21T06:14:14.425Z,10.43
2019-04-21T06:16:52.032Z,9.48
2019-04-21T06:19:23.656Z,11.25
2019-04-21T06:21:47.851Z,10.08
2019-04-21T06:24:17.614Z,9.30
2019-04-21T06:26:59.335Z,9.05
2019-04-21T06:29:24.010Z,10.78
2019-04-21T06:34:24.404Z,9.98
2019-04-21T06:37:21.523Z,8.90
2019-04-21T06:39:54.050Z,11.20
2019-04-21T06:42:09.177Z,11.10
2019-04-21T06:44:48.219Z,13.53
2019-04-21T06:47:26.607Z,10.53
2019-04-21T06:49:44.269Z,9.43
2019-04-21T06:54:50.758Z,9.58
2019-04-21T06:57:16.809Z,10.18
2019-04-21T06:59:43.631Z,11.90
2019-04-21T07:07:17.200Z,11.30
2019-04-21T07:12:19.805Z,8.98
2019-04-21T07:14:52.671Z,10.43
2019-04-21T07:17:29.390Z,9.55
2019-04-21T07:20:00.184Z,9.23
2019-04-21T07:22:32.374Z,9.93
2019-04-21T07:24:57.031Z,10.32
2019-04-21T07:27:30.162Z,11.22
2019-04-21T07:30:06.756Z,11.22
2019-04-21T07:32:36.061Z,9.45
2019-04-21T07:35:08.466Z,12.20
2019-04-21T07:37:35.391Z,9.65
2019-04-21T07:40:03.814Z,8.45
2019-04-21T07:42:32.852Z,11.20
2019-04-21T07:45:00.695Z,9.98
2019-04-21T07:50:29.842Z,7.80
2019-04-21T07:58:22.627Z,8.63
2019-04-21T08:00:45.364Z,7.70
2019-04-21T08:03:09.355Z,8.05
2019-04-21T08:08:01.427Z,8.13
2019-04-21T08:10:39.187Z,9.20
2019-04-21T08:13:22.040Z,8.03
2019-04-21T08:15:58.315Z,7.10
2019-04-21T08:18:12.989Z,9.75
2019-04-21T08:20:45.255Z,7.35
2019-04-21T08:25:58.969Z,10.00
2019-04-21T08:28:22.518Z,7.58
2019-04-21T08:30:47.731Z,7.60
2019-04-21T08:33:25.064Z,9.80
2019-04-21T08:38:21.851Z,7.45
2019-04-21T08:40:54.209Z,8.83
2019-04-21T08:43:32.029Z,7.10
2019-04-21T08:45:52.727Z,8.00
2019-04-21T08:51:06.805Z,6.10
2019-04-21T08:53:50.575Z,6.55
2019-04-21T08:59:28.863Z,8.43
2019-04-21T09:02:16.517Z,8.00
2019-04-21T09:04:30.186Z,5.50
2019-04-21T09:07:04.543Z,6.78
2019-04-21T09:09:37.867Z,6.70
2019-04-21T09:12:15.030Z,6.70
2019-04-21T09:14:31.052Z,5.95
2019-04-21T09:17:00.420Z,5.35
2019-04-21T09:19:44.518Z,4.00
2019-04-21T09:22:05.843Z,4.40
2019-04-21T09:24:42.785Z,6.08
2019-04-21T09:27:09.694Z,7.58
2019-04-21T09:31:55.838Z,5.42
2019-04-21T09:34:30.536Z,5.33
2019-04-21T09:37:10.498Z,5.37
2019-04-21T09:39:29.179Z,4.22
2019-04-21T09:44:32.924Z,4.40
2019-04-21T09:47:01.270Z,5.83
2019-04-21T09:49:31.736Z,8.13
2019-04-21T09:51:59.983Z,4.65
2019-04-21T09:54:33.670Z,5.15
2019-04-21T09:57:06.090Z,4.90
2019-04-21T09:59:37.045Z,5.55
2019-04-21T10:02:11.598Z,4.60
2019-04-21T10:04:37.807Z,5.62
2019-04-21T10:07:08.943Z,5.67
2019-04-21T10:09:39.457Z,7.53
2019-04-21T10:12:09.866Z,5.33
2019-04-21T10:14:38.902Z,6.08
2019-04-21T10:17:24.468Z,4.40
2019-04-21T10:19:53.542Z,4.85
2019-04-21T10:22:23.216Z,6.87
2019-04-21T10:24:52.419Z,4.90
2019-04-21T10:27:21.562Z,5.72
2019-04-21T10:32:24.002Z,4.95
2019-04-21T10:34:53.149Z,4.35
2019-04-21T10:37:36.552Z,4.85
2019-04-21T10:39:53.882Z,4.85
2019-04-21T10:42:23.676Z,4.85
2019-04-21T10:44:52.763Z,4.50
2019-04-21T10:47:22.769Z,4.20
2019-04-21T10:49:52.868Z,5.37
2019-04-21T10:55:32.335Z,6.20
2019-04-21T10:58:04.404Z,4.67
2019-04-21T11:00:34.330Z,5.25
2019-04-21T11:03:24.752Z,6.17
2019-04-21T11:05:54.672Z,5.47
2019-04-21T11:08:30.296Z,6.00
2019-04-21T11:10:54.564Z,4.90
2019-04-21T11:13:23.583Z,5.95
2019-04-21T11:15:52.984Z,4.65
2019-04-21T11:18:21.999Z,3.72
2019-04-21T11:20:51.214Z,3.80
2019-04-21T11:23:22.382Z,4.80
2019-04-21T11:25:51.727Z,5.92
2019-04-21T11:28:21.324Z,4.42
2019-04-21T11:30:51.006Z,4.72
2019-04-21T11:33:21.319Z,4.40
2019-04-21T11:38:29.139Z,6.22
2019-04-21T11:40:58.127Z,4.80
2019-04-21T11:43:27.405Z,4.55
2019-04-21T11:45:56.434Z,4.03
2019-04-21T11:48:28.309Z,4.87
2019-04-21T11:50:59.148Z,4.22
2019-04-21T11:53:28.789Z,5.62
2019-04-21T11:55:58.774Z,5.15
2019-04-21T11:58:29.878Z,4.08
2019-04-21T12:01:00.349Z,5.05
2019-04-21T12:03:29.583Z,5.15
2019-04-21T12:10:59.729Z,4.30
2019-04-21T12:13:30.296Z,4.30
2019-04-21T12:15:59.496Z,5.72
2019-04-21T12:18:30.144Z,4.60
2019-04-21T12:20:59.403Z,4.95
2019-04-21T12:23:28.393Z,6.47
2019-04-21T12:25:58.990Z,4.92
2019-04-21T12:28:28.132Z,6.70
2019-04-21T12:30:57.918Z,5.42
2019-04-21T12:33:42.222Z,5.00
2019-04-21T12:36:11.733Z,5.83
2019-04-21T12:41:12.566Z,4.78
2019-04-21T12:43:42.578Z,4.30
2019-04-21T12:48:42.072Z,5.08
2019-04-21T12:51:12.253Z,4.42
2019-04-21T12:53:41.674Z,6.12
2019-04-21T12:56:11.799Z,5.80
2019-04-21T12:58:41.529Z,5.60
2019-04-21T13:03:39.860Z,6.75
2019-04-21T13:06:09.978Z,4.95
2019-04-21T13:08:49.749Z,6.37
2019-04-21T13:11:11.515Z,5.42
2019-04-21T13:13:42.062Z,7.33
2019-04-21T13:16:13.674Z,4.92
2019-04-21T13:18:42.797Z,5.17
2019-04-21T13:21:12.050Z,5.03
2019-04-21T13:23:41.279Z,6.35
2019-04-21T13:26:11.418Z,4.80
2019-04-21T13:28:40.606Z,5.55
2019-04-21T13:31:09.690Z,4.75
2019-04-21T13:36:09.706Z,5.53
2019-04-21T13:39:26.236Z,4.65
2019-04-21T13:41:41.666Z,5.15
2019-04-21T13:44:15.761Z,4.85
2019-04-21T13:46:46.975Z,5.60
2019-04-21T13:49:17.197Z,5.37
2019-04-21T13:51:47.864Z,5.65
2019-04-21T13:54:18.048Z,5.97
2019-04-21T13:56:47.041Z,6.30
2019-04-21T13:59:16.292Z,5.17
2019-04-21T14:01:45.696Z,5.12
2019-04-21T14:04:15.866Z,4.55
2019-04-21T14:06:45.107Z,4.70
2019-04-21T14:09:15.607Z,5.40
2019-04-21T14:11:45.290Z,5.58
2019-04-21T14:14:14.532Z,5.80
2019-04-21T14:16:44.163Z,5.28
2019-04-21T14:19:15.316Z,5.67
2019-04-21T14:21:48.125Z,7.05
2019-04-21T14:24:17.083Z,5.55
2019-04-21T14:26:46.439Z,5.87
2019-04-21T14:29:15.622Z,6.97
2019-04-21T14:34:14.338Z,6.85
2019-04-21T14:40:33.258Z,4.58
2019-04-21T14:43:02.618Z,6.17
2019-04-21T14:45:57.117Z,4.30
2019-04-21T14:49:05.443Z,5.00
2019-04-21T14:54:38.406Z,5.30
2019-04-21T14:57:09.213Z,6.33
2019-04-21T14:59:39.301Z,5.12
2019-04-21T15:02:09.868Z,6.67
2019-04-21T15:04:39.800Z,4.97
2019-04-21T15:07:09.819Z,4.95
2019-04-21T15:09:41.211Z,5.30
2019-04-21T15:12:11.875Z,5.40
2019-04-21T15:14:42.179Z,6.42
2019-04-21T15:17:12.748Z,5.00
2019-04-21T15:19:52.278Z,5.28
2019-04-21T15:22:16.517Z,5.60
2019-04-21T15:24:45.602Z,5.62
2019-04-21T15:27:14.866Z,4.17
2019-04-21T15:29:44.864Z,7.37
2019-04-21T15:32:14.885Z,7.00
2019-04-21T15:34:44.384Z,4.10
2019-04-21T15:37:15.701Z,5.30
2019-04-21T15:39:44.952Z,6.55
2019-04-21T15:42:14.626Z,5.75
2019-04-21T15:44:44.931Z,4.78
2019-04-21T15:47:15.795Z,4.72
2019-04-21T15:50:00.951Z,5.03
2019-04-21T15:52:27.986Z,4.67
2019-04-21T15:55:03.165Z,4.40
2019-04-21T15:57:49.007Z,5.65
2019-04-21T16:00:24.660Z,5.15
2019-04-21T16:02:54.852Z,4.95
2019-04-21T16:05:24.553Z,9.23
2019-04-21T16:07:54.185Z,5.78
2019-04-21T16:10:34.638Z,6.15
2019-04-21T16:12:56.001Z,5.35
2019-04-21T16:15:26.138Z,4.75
2019-04-21T16:17:55.458Z,5.22
2019-04-21T16:20:25.921Z,5.83
2019-04-21T16:22:56.750Z,4.60
2019-04-21T16:25:26.713Z,7.08
2019-04-21T16:27:55.736Z,5.55
2019-04-21T16:32:54.420Z,4.87
2019-04-21T16:35:24.933Z,5.35
2019-04-21T16:37:59.465Z,4.67
2019-04-21T16:40:46.798Z,6.03
2019-04-21T16:43:08.130Z,4.83
2019-04-21T16:45:39.117Z,4.85
2019-04-21T16:48:09.476Z,4.83
2019-04-21T16:50:39.578Z,5.00
2019-04-21T16:53:19.979Z,5.58
2019-04-21T16:55:55.029Z,5.78
2019-04-21T16:58:32.633Z,7.12
2019-04-21T17:01:10.763Z,5.00
2019-04-21T17:03:37.511Z,5.22
2019-04-21T17:06:09.015Z,7.08
2019-04-21T17:08:40.920Z,4.58
2019-04-21T17:11:18.743Z,5.42
2019-04-21T17:13:43.008Z,4.65
2019-04-21T17:16:40.797Z,4.65
2019-04-21T17:18:57.471Z,4.25
2019-04-21T17:21:15.282Z,6.35
2019-04-21T17:23:46.509Z,7.30
2019-04-21T17:26:17.070Z,4.90
2019-04-21T17:28:46.741Z,4.65
2019-04-21T17:31:16.246Z,5.33
2019-04-21T17:33:47.152Z,4.60
2019-04-21T17:36:18.913Z,6.47
2019-04-21T17:38:48.580Z,4.78
2019-04-21T17:41:29.465Z,5.15
2019-04-21T17:43:49.978Z,4.22
2019-04-21T17:46:24.572Z,4.80
2019-04-21T17:51:49.213Z,5.25
2019-04-21T17:54:31.719Z,5.65
2019-04-21T17:57:16.302Z,7.60
2019-04-21T18:02:23.499Z,5.47
2019-04-21T18:07:27.573Z,5.22
2019-04-21T18:10:04.936Z,4.83
2019-04-21T18:12:33.411Z,5.75
2019-04-21T18:15:02.404Z,6.85
2019-04-21T18:19:54.866Z,6.03
2019-04-21T18:22:51.268Z,6.47
2019-04-21T18:27:52.919Z,5.72
2019-04-21T18:30:49.643Z,8.10
2019-04-21T18:36:13.450Z,5.08
2019-04-21T18:39:10.024Z,5.40
2019-04-21T18:41:30.127Z,5.35
2019-04-21T18:44:44.343Z,5.95
2019-04-21T18:47:09.696Z,5.78
2019-04-21T18:49:40.912Z,9.33
2019-04-21T18:55:00.162Z,5.65
2019-04-21T18:57:27.405Z,6.17
2019-04-21T18:59:51.299Z,6.75
2019-04-21T19:02:23.068Z,10.23
2019-04-21T19:04:59.500Z,12.82
2019-04-21T19:07:45.516Z,11.20
2019-04-21T19:11:01.157Z,13.40
2019-04-21T19:16:57.835Z,15.28
2019-04-21T19:19:35.379Z,16.40
2019-04-21T19:21:32.537Z,16.32
2019-04-21T19:26:46.630Z,14.43
2019-04-21T19:31:46.595Z,9.88
2019-04-21T19:34:03.160Z,10.30
2019-04-21T19:36:25.814Z,10.45
2019-04-21T19:42:30.711Z,9.18
2019-04-21T19:45:05.275Z,7.75
2019-04-21T19:47:41.699Z,8.38
2019-04-21T19:52:34.050Z,9.03
2019-04-21T19:54:54.997Z,7.80
2019-04-21T19:57:25.235Z,9.50
2019-04-21T19:59:57.401Z,8.35
2019-04-21T20:02:26.823Z,10.93
2019-04-21T20:05:03.142Z,8.20
2019-04-21T20:07:43.825Z,7.53
2019-04-21T20:10:23.689Z,8.70
2019-04-21T20:12:47.390Z,9.23
2019-04-21T20:16:07.913Z,7.55
2019-04-21T20:18:31.994Z,10.25
2019-04-21T20:21:28.977Z,9.15
2019-04-21T20:24:05.046Z,8.25
2019-04-21T20:26:35.703Z,16.12
2019-04-21T20:29:14.005Z,11.03
2019-04-21T20:34:17.797Z,10.90
2019-04-21T20:36:56.765Z,10.65
2019-04-21T20:39:12.610Z,9.33
2019-04-21T20:41:46.837Z,9.73
2019-04-21T20:44:27.150Z,16.75
2019-04-21T20:46:58.142Z,10.93
2019-04-21T20:49:23.193Z,9.80
2019-04-21T20:52:08.004Z,8.68
2019-04-21T20:54:30.301Z,11.78
2019-04-21T20:57:02.781Z,10.60
2019-04-21T20:59:28.780Z,9.08
2019-04-21T21:02:05.649Z,8.55
2019-04-21T21:04:28.003Z,10.30
2019-04-21T21:07:06.171Z,10.15
2019-04-21T21:09:35.651Z,9.00
2019-04-21T21:12:22.291Z,12.47
2019-04-21T21:14:36.303Z,10.50
2019-04-21T21:17:30.345Z,8.53
2019-04-21T21:19:45.670Z,10.32
2019-04-21T21:24:46.394Z,8.85
2019-04-21T21:27:13.076Z,11.80
2019-04-21T21:29:45.780Z,10.70
2019-04-21T21:32:27.351Z,9.90
2019-04-21T21:34:49.717Z,9.83
2019-04-21T21:39:57.201Z,10.30
2019-04-21T21:42:08.075Z,15.90
2019-04-21T21:47:23.039Z,10.75
2019-04-21T21:49:54.220Z,9.65
2019-04-21T21:52:22.298Z,8.38
2019-04-21T21:54:43.494Z,10.35
2019-04-21T21:59:43.539Z,8.25
2019-04-21T22:02:16.983Z,9.03
2019-04-21T22:07:18.937Z,8.15
2019-04-21T22:09:46.362Z,6.75
2019-04-21T22:14:48.988Z,7.83
2019-04-21T22:17:29.361Z,6.65
2019-04-21T22:20:12.245Z,8.88
2019-04-21T22:22:32.743Z,7.72
2019-04-21T22:27:21.283Z,6.62
2019-04-21T22:29:55.074Z,9.30
2019-04-21T22:32:27.078Z,13.85
2019-04-21T22:34:58.342Z,7.92
2019-04-21T22:37:38.029Z,7.70
2019-04-21T22:40:10.443Z,7.65
2019-04-21T22:42:32.062Z,7.58
2019-04-21T22:44:56.752Z,7.58
2019-04-21T22:48:53.249Z,7.12
2019-04-21T22:51:28.464Z,8.18
2019-04-21T22:53:53.866Z,9.40
2019-04-21T22:56:26.911Z,10.05
2019-04-21T22:58:53.153Z,8.58
2019-04-21T23:01:28.244Z,7.05
2019-04-21T23:06:27.570Z,10.32
2019-04-21T23:11:27.969Z,9.20
2019-04-21T23:14:04.024Z,12.00
2019-04-21T23:16:33.273Z,10.50
2019-04-21T23:21:51.476Z,12.55
2019-04-21T23:24:22.191Z,13.18
2019-04-21T23:26:48.658Z,9.90
2019-04-21T23:29:25.734Z,10.55
2019-04-21T23:34:04.510Z,12.00
2019-04-21T23:36:35.978Z,11.25
2019-04-21T23:39:16.020Z,11.95
2019-04-21T23:44:11.904Z,15.68
2019-04-21T23:46:42.623Z,13.48
2019-04-21T23:49:26.914Z,12.37
2019-04-21T23:51:50.527Z,11.85
2019-04-21T23:54:15.625Z,24.50
2019-04-21T23:56:47.542Z,15.55
2019-04-21T23:59:17.615Z,12.88
